Time;durP1;ratioP1;P1;durP2;ratioP2;P2;SDS_P1;SDS_P2;PMS_P1;PMS_P2;Temp;Humidity;BMP_temperature;BMP_pressure;BME280_temperature;BME280_humidity;BME280_pressure;Samples;Min_cycle;Max_cycle;Signal;HPM_P1;HPM_P2
2022/12/18 00:01:59;;;;;;;;;;;-4.40;99.90;;;;;;5071736;28;19939;-66
2022/12/18 00:04:25;;;;;;;;;;;-4.50;99.90;;;;;;5002042;28;19992;-66
2022/12/18 00:06:51;;;;;;;;;;;-4.50;99.90;;;;;;4979163;28;20156;-66
2022/12/18 00:09:17;;;;;;;;;;;-4.60;99.90;;;;;;5073447;28;20357;-66
2022/12/18 00:11:43;;;;;;;;;;;-4.60;99.90;;;;;;5051922;28;20395;-66
2022/12/18 00:14:10;;;;;;;;;;;-4.70;99.90;;;;;;5077670;28;19920;-66
2022/12/18 00:16:36;;;;;;;;;;;-4.70;99.90;;;;;;5007651;28;19921;-66
2022/12/18 00:19:02;;;;;;;;;;;-4.70;99.90;;;;;;5017063;28;19927;-66
2022/12/18 00:21:28;;;;;;;;;;;-4.70;99.90;;;;;;5029129;28;19933;-66
2022/12/18 00:23:54;;;;;;;;;;;-4.80;99.90;;;;;;5040159;28;19990;-66
2022/12/18 00:26:21;;;;;;;;;;;-4.80;99.90;;;;;;5043967;27;20374;-66
2022/12/18 00:28:47;;;;;;;;;;;-4.80;99.90;;;;;;5058234;28;19929;-66
2022/12/18 00:31:15;;;;;;;;;;;-4.90;99.90;;;;;;5017545;28;19986;-66
2022/12/18 00:33:40;;;;;;;;;;;-4.90;99.90;;;;;;5014952;28;19930;-66
2022/12/18 00:36:07;;;;;;;;;;;-4.90;99.90;;;;;;5048395;28;19966;-66
2022/12/18 00:38:34;;;;;;;;;;;-4.90;99.90;;;;;;5060813;28;20007;-66
2022/12/18 00:40:59;;;;;;;;;;;-4.90;99.90;;;;;;5044962;28;20048;-66
2022/12/18 00:43:25;;;;;;;;;;;-5.00;99.90;;;;;;5073541;28;20449;-66
2022/12/18 00:45:50;;;;;;;;;;;-5.00;99.90;;;;;;5059439;28;19927;-66
2022/12/18 00:48:16;;;;;;;;;;;-5.10;99.90;;;;;;5025564;28;19928;-66
2022/12/18 00:50:42;;;;;;;;;;;-5.10;99.90;;;;;;5059837;28;20006;-66
2022/12/18 00:53:10;;;;;;;;;;;-4.30;99.90;;;;;;5077446;28;19973;-66
2022/12/18 00:55:39;;;;;;;;;;;-5.10;99.90;;;;;;5066281;28;19927;-66
2022/12/18 00:58:05;;;;;;;;;;;-5.10;99.90;;;;;;5046434;28;20289;-66
2022/12/18 01:00:30;;;;;;;;;;;-5.10;99.90;;;;;;5023823;28;19926;-66
2022/12/18 01:02:56;;;;;;;;;;;-5.20;99.90;;;;;;5052054;28;19929;-66
2022/12/18 01:05:22;;;;;;;;;;;-5.30;99.90;;;;;;5044825;28;19979;-65
2022/12/18 01:07:47;;;;;;;;;;;-5.30;99.90;;;;;;5023221;28;19933;-66
2022/12/18 01:10:13;;;;;;;;;;;-5.30;99.90;;;;;;5003324;28;20019;-66
2022/12/18 01:12:39;;;;;;;;;;;-5.40;99.90;;;;;;5012628;28;19981;-66
2022/12/18 01:15:05;;;;;;;;;;;-5.50;99.90;;;;;;5024434;28;19929;-66
2022/12/18 01:17:31;;;;;;;;;;;-5.50;99.90;;;;;;5011300;28;19921;-66
2022/12/18 01:19:56;;;;;;;;;;;-5.60;99.90;;;;;;5023258;28;19967;-66
2022/12/18 01:22:22;;;;;;;;;;;-5.60;99.90;;;;;;5039262;28;20385;-66
2022/12/18 01:24:48;;;;;;;;;;;-5.70;99.90;;;;;;5021306;28;19922;-66
2022/12/18 01:27:13;;;;;;;;;;;-5.70;99.90;;;;;;5027729;28;20271;-66
2022/12/18 01:29:39;;;;;;;;;;;-5.70;99.90;;;;;;5011782;28;20671;-66
2022/12/18 01:32:04;;;;;;;;;;;-5.70;99.90;;;;;;5003763;28;19922;-66
2022/12/18 01:34:30;;;;;;;;;;;-5.70;99.90;;;;;;4997249;28;19930;-66
2022/12/18 01:36:56;;;;;;;;;;;-5.80;99.90;;;;;;5016573;28;20287;-66
2022/12/18 01:39:21;;;;;;;;;;;-5.80;99.90;;;;;;4992215;28;20299;-66
2022/12/18 01:42:02;;;;;;;;;;;-5.90;99.90;;;;;;5071282;28;19928;-66
2022/12/18 01:44:46;;;;;;;;;;;-5.90;99.90;;;;;;5061643;28;19927;-66
2022/12/18 01:47:20;;;;;;;;;;;-6.00;99.90;;;;;;5078650;28;19920;-66
2022/12/18 01:49:45;;;;;;;;;;;-6.00;99.90;;;;;;5021545;28;19926;-66
2022/12/18 01:52:11;;;;;;;;;;;-6.00;99.90;;;;;;5083310;28;20367;-66
2022/12/18 01:54:36;;;;;;;;;;;-6.10;99.90;;;;;;5044130;27;19921;-66
2022/12/18 01:57:02;;;;;;;;;;;-6.10;99.90;;;;;;5066708;28;19916;-66
2022/12/18 01:59:28;;;;;;;;;;;-5.90;99.90;;;;;;5002715;28;19929;-66
2022/12/18 02:01:54;;;;;;;;;;;-6.20;99.90;;;;;;5003394;28;19930;-66
2022/12/18 02:04:20;;;;;;;;;;;-6.30;99.90;;;;;;5047539;28;20369;-66
2022/12/18 02:06:46;;;;;;;;;;;-6.40;99.90;;;;;;4994029;28;19987;-66
2022/12/18 02:09:17;;;;;;;;;;;-5.20;99.90;;;;;;5036161;28;19990;-66
2022/12/18 02:12:01;;;;;;;;;;;-6.40;99.90;;;;;;5023711;27;19922;-65
2022/12/18 02:14:49;;;;;;;;;;;-6.40;99.90;;;;;;5021133;28;19952;-66
2022/12/18 02:17:20;;;;;;;;;;;-6.40;99.90;;;;;;4996079;28;19920;-66
2022/12/18 02:19:52;;;;;;;;;;;-6.40;99.90;;;;;;5023224;27;19922;-66
2022/12/18 02:22:26;;;;;;;;;;;-6.40;99.90;;;;;;5013924;28;19957;-65
2022/12/18 02:25:00;;;;;;;;;;;-6.50;99.90;;;;;;5019342;28;19920;-66
2022/12/18 02:27:28;;;;;;;;;;;-6.50;99.90;;;;;;5003399;28;19937;-66
2022/12/18 02:29:54;;;;;;;;;;;-6.50;99.90;;;;;;5018389;28;20003;-66
2022/12/18 02:32:24;;;;;;;;;;;-6.60;99.90;;;;;;5011881;28;19940;-66
2022/12/18 02:34:50;;;;;;;;;;;-6.70;99.90;;;;;;5014209;28;19936;-65
2022/12/18 02:37:18;;;;;;;;;;;-6.70;99.90;;;;;;5012305;28;19922;-66
2022/12/18 02:39:44;;;;;;;;;;;-6.80;99.90;;;;;;4998737;28;20367;-66
2022/12/18 02:42:10;;;;;;;;;;;-6.80;99.90;;;;;;5031187;27;20025;-66
2022/12/18 02:44:50;;;;;;;;;;;-6.80;99.90;;;;;;4966886;28;19933;-66
2022/12/18 02:47:17;;;;;;;;;;;-6.80;99.90;;;;;;5025082;28;20333;-66
2022/12/18 02:49:43;;;;;;;;;;;-6.90;99.90;;;;;;5026757;28;19926;-66
2022/12/18 02:52:08;;;;;;;;;;;-7.00;99.90;;;;;;5071628;28;19929;-66
2022/12/18 02:54:38;;;;;;;;;;;-7.00;99.90;;;;;;5048378;28;20395;-66
2022/12/18 02:57:09;;;;;;;;;;;-7.00;99.90;;;;;;5070852;28;20826;-66
2022/12/18 02:59:55;;;;;;;;;;;-7.00;99.90;;;;;;5073122;28;20121;-66
2022/12/18 03:02:33;;;;;;;;;;;-7.00;99.90;;;;;;4998037;28;19926;-66
2022/12/18 03:05:05;;;;;;;;;;;-7.00;99.90;;;;;;5072473;28;20178;-65
2022/12/18 03:07:44;;;;;;;;;;;-7.00;99.90;;;;;;5077552;27;19921;-66
2022/12/18 03:10:13;;;;;;;;;;;-7.00;99.90;;;;;;4998103;28;19921;-66
2022/12/18 03:12:42;;;;;;;;;;;-6.90;99.90;;;;;;5032492;28;19925;-66
2022/12/18 03:15:19;;;;;;;;;;;-6.90;99.90;;;;;;5071481;28;19920;-66
2022/12/18 03:17:48;;;;;;;;;;;-6.90;99.90;;;;;;5072145;28;20332;-65
2022/12/18 03:20:16;;;;;;;;;;;-6.90;99.90;;;;;;5050592;28;20408;-65
2022/12/18 03:22:44;;;;;;;;;;;-6.90;99.90;;;;;;5011063;28;19921;-66
2022/12/18 03:25:12;;;;;;;;;;;-6.90;99.90;;;;;;5016053;28;20397;-66
2022/12/18 03:27:42;;;;;;;;;;;-6.90;99.90;;;;;;5018704;28;19921;-66
2022/12/18 03:30:08;;;;;;;;;;;-6.90;99.90;;;;;;5027399;28;19922;-66
2022/12/18 03:32:40;;;;;;;;;;;-7.00;99.90;;;;;;5017917;28;20259;-66
2022/12/18 03:35:06;;;;;;;;;;;-7.00;99.90;;;;;;4989849;28;19922;-66
2022/12/18 03:37:32;;;;;;;;;;;-7.10;99.90;;;;;;4990987;28;20340;-66
2022/12/18 03:39:58;;;;;;;;;;;-7.10;99.90;;;;;;4993443;28;19929;-66
2022/12/18 03:42:31;;;;;;;;;;;-7.10;99.90;;;;;;5001330;28;19994;-66
2022/12/18 03:45:06;;;;;;;;;;;-7.20;99.90;;;;;;5017733;28;19926;-66
2022/12/18 03:47:38;;;;;;;;;;;-7.20;99.90;;;;;;4987425;28;19930;-66
2022/12/18 03:50:10;;;;;;;;;;;-7.20;99.90;;;;;;4996615;28;19926;-66
2022/12/18 03:52:38;;;;;;;;;;;-7.20;99.90;;;;;;5014923;28;19922;-66
2022/12/18 03:55:05;;;;;;;;;;;-7.20;99.90;;;;;;5009330;28;19928;-66
2022/12/18 03:57:32;;;;;;;;;;;-7.20;99.90;;;;;;5022069;28;20038;-66
2022/12/18 04:00:00;;;;;;;;;;;-7.20;99.90;;;;;;5016474;28;19980;-66
2022/12/18 04:02:26;;;;;;;;;;;-7.20;99.90;;;;;;5023528;28;20393;-66
2022/12/18 04:04:53;;;;;;;;;;;-7.30;99.90;;;;;;5032265;28;19949;-66
2022/12/18 04:07:19;;;;;;;;;;;-7.30;99.90;;;;;;5033508;28;20341;-66
2022/12/18 04:09:48;;;;;;;;;;;-7.40;99.90;;;;;;5029845;28;19929;-66
2022/12/18 04:12:13;;;;;;;;;;;-7.40;99.90;;;;;;5038686;28;19920;-66
2022/12/18 04:14:39;;;;;;;;;;;-7.40;99.90;;;;;;5025090;28;19922;-66
2022/12/18 04:17:04;;;;;;;;;;;-7.40;99.90;;;;;;5024494;28;19928;-66
2022/12/18 04:19:30;;;;;;;;;;;-7.40;99.90;;;;;;5025154;28;19920;-66
2022/12/18 04:21:56;;;;;;;;;;;-7.40;99.90;;;;;;5017390;27;19925;-65
2022/12/18 04:24:21;;;;;;;;;;;-7.40;99.90;;;;;;5007551;28;20310;-65
2022/12/18 04:26:47;;;;;;;;;;;-7.40;99.90;;;;;;5026745;27;19926;-65
2022/12/18 04:29:12;;;;;;;;;;;-7.40;99.90;;;;;;5022805;27;20072;-66
2022/12/18 04:31:38;;;;;;;;;;;-7.40;99.90;;;;;;5046501;28;19921;-66
2022/12/18 04:34:04;;;;;;;;;;;-7.50;99.90;;;;;;5034219;28;19928;-66
2022/12/18 04:36:29;;;;;;;;;;;-7.50;99.90;;;;;;5023613;28;20508;-66
2022/12/18 04:38:55;;;;;;;;;;;-7.50;99.90;;;;;;5017741;28;19973;-66
2022/12/18 04:41:21;;;;;;;;;;;-7.50;99.90;;;;;;5016832;28;20402;-66
2022/12/18 04:43:46;;;;;;;;;;;-7.50;99.90;;;;;;5012709;28;19929;-66
2022/12/18 04:46:12;;;;;;;;;;;-7.50;99.90;;;;;;5020403;28;19924;-66
2022/12/18 04:48:37;;;;;;;;;;;-7.60;99.90;;;;;;4976545;28;19922;-66
2022/12/18 04:51:04;;;;;;;;;;;-7.60;99.90;;;;;;5060482;28;20393;-66
2022/12/18 04:53:29;;;;;;;;;;;-7.70;99.90;;;;;;5015493;28;20389;-66
2022/12/18 04:56:21;;;;;;;;;;;-7.60;99.90;;;;;;5061705;28;19921;-66
2022/12/18 04:58:47;;;;;;;;;;;-7.60;99.90;;;;;;5067448;28;19947;-66
2022/12/18 05:01:14;;;;;;;;;;;-6.50;99.90;;;;;;5078281;28;19924;-66
2022/12/18 05:03:40;;;;;;;;;;;-7.60;99.90;;;;;;5066996;28;19921;-66
2022/12/18 05:06:06;;;;;;;;;;;-7.60;99.90;;;;;;5012036;28;19943;-66
2022/12/18 05:08:31;;;;;;;;;;;-7.60;99.90;;;;;;5070628;28;19928;-66
2022/12/18 05:11:01;;;;;;;;;;;-7.70;99.90;;;;;;5073873;28;19921;-66
2022/12/18 05:13:27;;;;;;;;;;;-7.70;99.90;;;;;;5075026;27;19925;-66
2022/12/18 05:15:53;;;;;;;;;;;-7.60;99.90;;;;;;5070262;28;19965;-66
2022/12/18 05:18:18;;;;;;;;;;;-7.60;99.90;;;;;;5086673;28;20385;-66
2022/12/18 05:20:44;;;;;;;;;;;-7.50;99.90;;;;;;5020296;28;20390;-66
2022/12/18 05:23:10;;;;;;;;;;;-7.50;99.90;;;;;;5016664;27;19966;-66
2022/12/18 05:25:35;;;;;;;;;;;-7.40;99.90;;;;;;5020562;28;19930;-67
2022/12/18 05:28:01;;;;;;;;;;;-7.40;99.90;;;;;;4989423;28;19922;-66
2022/12/18 05:30:27;;;;;;;;;;;-7.40;99.90;;;;;;4994712;28;19933;-66
2022/12/18 05:32:53;;;;;;;;;;;-7.50;99.90;;;;;;5003443;28;19926;-66
2022/12/18 05:35:18;;;;;;;;;;;-7.50;99.90;;;;;;4994863;28;19983;-66
2022/12/18 05:37:44;;;;;;;;;;;-7.50;99.90;;;;;;5030669;28;19926;-66
2022/12/18 05:40:10;;;;;;;;;;;-7.50;99.90;;;;;;5001008;28;20013;-66
2022/12/18 05:42:36;;;;;;;;;;;-7.60;99.90;;;;;;5015981;28;19967;-66
2022/12/18 05:45:05;;;;;;;;;;;-7.60;99.90;;;;;;5034580;28;19980;-66
2022/12/18 05:47:30;;;;;;;;;;;-6.10;99.90;;;;;;4998568;28;19961;-66
2022/12/18 05:49:56;;;;;;;;;;;-7.60;99.90;;;;;;5038695;27;19988;-66
2022/12/18 05:52:22;;;;;;;;;;;-7.60;99.90;;;;;;4992503;28;20374;-66
2022/12/18 05:54:48;;;;;;;;;;;-7.60;99.90;;;;;;5019078;28;20381;-66
2022/12/18 05:57:13;;;;;;;;;;;-7.60;99.90;;;;;;4999979;28;20220;-67
2022/12/18 05:59:39;;;;;;;;;;;-7.60;99.90;;;;;;5010538;28;20442;-66
2022/12/18 06:02:05;;;;;;;;;;;-7.70;99.90;;;;;;5018040;28;19933;-66
2022/12/18 06:04:31;;;;;;;;;;;-7.70;99.90;;;;;;5023906;28;19926;-66
2022/12/18 06:06:57;;;;;;;;;;;-7.70;99.90;;;;;;5030876;27;19928;-66
2022/12/18 06:09:22;;;;;;;;;;;-7.80;99.90;;;;;;5004813;28;19922;-66
2022/12/18 06:11:48;;;;;;;;;;;-7.70;99.90;;;;;;5020363;28;20083;-66
2022/12/18 06:14:13;;;;;;;;;;;-7.80;99.90;;;;;;5056039;27;19997;-67
2022/12/18 06:16:39;;;;;;;;;;;-7.70;99.90;;;;;;5065641;28;20400;-66
2022/12/18 06:19:05;;;;;;;;;;;-7.80;99.90;;;;;;5028646;27;19929;-66
2022/12/18 06:21:31;;;;;;;;;;;-7.80;99.90;;;;;;4997768;28;19948;-66
2022/12/18 06:23:57;;;;;;;;;;;-7.80;99.90;;;;;;5007129;28;19924;-66
2022/12/18 06:26:22;;;;;;;;;;;-7.00;99.90;;;;;;4992063;28;19997;-66
2022/12/18 06:28:48;;;;;;;;;;;-7.80;99.90;;;;;;5044800;28;19960;-66
2022/12/18 06:31:13;;;;;;;;;;;-7.80;99.90;;;;;;5077874;28;19974;-66
2022/12/18 06:33:39;;;;;;;;;;;-7.80;99.90;;;;;;5009614;28;19929;-66
2022/12/18 06:36:06;;;;;;;;;;;-7.80;99.90;;;;;;4996691;28;19922;-66
2022/12/18 06:38:33;;;;;;;;;;;-7.80;99.90;;;;;;4997494;28;20330;-66
2022/12/18 06:40:58;;;;;;;;;;;-7.80;99.90;;;;;;5032249;28;20387;-66
2022/12/18 06:43:24;;;;;;;;;;;-7.90;99.90;;;;;;4986985;28;19931;-66
2022/12/18 06:45:52;;;;;;;;;;;-7.80;99.90;;;;;;5019738;28;19926;-66
2022/12/18 06:48:21;;;;;;;;;;;-7.90;99.90;;;;;;4990320;28;20386;-67
2022/12/18 06:50:47;;;;;;;;;;;-7.90;99.90;;;;;;5029797;28;20012;-66
2022/12/18 06:53:12;;;;;;;;;;;-7.90;99.90;;;;;;5022060;28;20481;-66
2022/12/18 06:55:38;;;;;;;;;;;-7.90;99.90;;;;;;5032179;28;20304;-66
2022/12/18 06:58:03;;;;;;;;;;;-7.90;99.90;;;;;;5018855;27;19930;-67
2022/12/18 07:00:29;;;;;;;;;;;-7.90;99.90;;;;;;5021185;28;20014;-66
2022/12/18 07:02:54;;;;;;;;;;;-7.90;99.90;;;;;;5037066;28;19928;-67
2022/12/18 07:05:20;;;;;;;;;;;-8.00;99.90;;;;;;5017690;28;20027;-66
2022/12/18 07:07:45;;;;;;;;;;;-8.00;99.90;;;;;;5032559;27;19947;-66
2022/12/18 07:10:11;;;;;;;;;;;-8.10;99.90;;;;;;5003445;28;19928;-66
2022/12/18 07:12:37;;;;;;;;;;;-8.10;99.90;;;;;;5012105;28;19926;-67
2022/12/18 07:15:03;;;;;;;;;;;-8.10;99.90;;;;;;5018155;28;19978;-66
2022/12/18 07:17:29;;;;;;;;;;;-7.30;99.90;;;;;;5005623;28;19967;-67
2022/12/18 07:19:55;;;;;;;;;;;-8.10;99.90;;;;;;5020704;28;20369;-67
2022/12/18 07:22:20;;;;;;;;;;;-8.00;99.90;;;;;;5020277;28;19929;-67
2022/12/18 07:24:46;;;;;;;;;;;-8.00;99.90;;;;;;5003366;28;19922;-66
2022/12/18 07:27:11;;;;;;;;;;;-8.00;99.90;;;;;;5006839;28;19932;-67
2022/12/18 07:29:37;;;;;;;;;;;-8.00;99.90;;;;;;5016168;28;19924;-66
2022/12/18 07:32:02;;;;;;;;;;;-8.00;99.90;;;;;;4999576;28;20371;-66
2022/12/18 07:34:28;;;;;;;;;;;-7.90;99.90;;;;;;4994123;28;19936;-66
2022/12/18 07:36:54;;;;;;;;;;;-7.90;99.90;;;;;;4996621;28;20394;-66
2022/12/18 07:39:19;;;;;;;;;;;-7.90;99.90;;;;;;5008391;28;19957;-66
2022/12/18 07:42:30;;;;;;;;;;;-7.90;99.90;;;;;;5027612;28;19924;-66
2022/12/18 07:44:34;;;;;;;;;;;-7.80;99.90;;;;;;5023287;28;19937;-66
2022/12/18 07:46:59;;;;;;;;;;;-7.90;99.90;;;;;;5006770;28;19929;-66
2022/12/18 07:49:25;;;;;;;;;;;-7.80;99.90;;;;;;5011672;28;19927;-66
2022/12/18 07:51:50;;;;;;;;;;;-7.80;99.90;;;;;;5033930;28;20014;-66
2022/12/18 07:54:16;;;;;;;;;;;-7.70;99.90;;;;;;5024493;28;19919;-66
2022/12/18 07:56:41;;;;;;;;;;;-7.50;99.90;;;;;;5005533;28;20592;-66
2022/12/18 07:59:07;;;;;;;;;;;-7.20;99.90;;;;;;5016270;28;19932;-66
2022/12/18 08:01:33;;;;;;;;;;;-7.20;99.90;;;;;;5028805;28;19933;-66
2022/12/18 08:03:59;;;;;;;;;;;-6.00;99.90;;;;;;5025007;28;19927;-66
2022/12/18 08:06:25;;;;;;;;;;;-7.00;99.90;;;;;;5029844;28;19921;-66
2022/12/18 08:08:52;;;;;;;;;;;-7.00;99.90;;;;;;5019782;28;19925;-66
2022/12/18 08:11:17;;;;;;;;;;;-6.80;99.90;;;;;;5025214;28;20270;-67
2022/12/18 08:13:43;;;;;;;;;;;-6.60;99.90;;;;;;5016207;28;20443;-66
2022/12/18 08:16:09;;;;;;;;;;;-5.10;99.90;;;;;;4998119;28;19921;-66
2022/12/18 08:18:35;;;;;;;;;;;-6.30;99.90;;;;;;5023856;27;19935;-66
2022/12/18 08:21:10;;;;;;;;;;;-6.30;99.90;;;;;;5015630;28;19937;-67
2022/12/18 08:23:36;;;;;;;;;;;-6.20;99.90;;;;;;4984545;28;19929;-67
2022/12/18 08:26:01;;;;;;;;;;;-5.40;99.90;;;;;;5032010;28;20344;-67
2022/12/18 08:28:27;;;;;;;;;;;-6.10;99.90;;;;;;5027795;28;20290;-67
2022/12/18 08:30:53;;;;;;;;;;;-6.10;99.90;;;;;;5015087;28;19922;-67
2022/12/18 08:33:18;;;;;;;;;;;-5.90;99.90;;;;;;4996169;28;19921;-67
2022/12/18 08:35:44;;;;;;;;;;;-5.90;99.90;;;;;;5019470;28;19937;-67
2022/12/18 08:38:09;;;;;;;;;;;-5.80;99.90;;;;;;5019512;28;19934;-67
2022/12/18 08:40:35;;;;;;;;;;;-5.70;99.90;;;;;;5015576;27;19929;-67
2022/12/18 08:45:45;;;;;;;;;;;-5.60;99.90;;;;;;5020978;28;19925;-67
2022/12/18 08:48:10;;;;;;;;;;;-5.60;99.90;;;;;;5052987;28;19975;-67
2022/12/18 08:50:36;;;;;;;;;;;-5.50;99.90;;;;;;5014045;28;20363;-67
2022/12/18 08:53:02;;;;;;;;;;;-5.40;99.90;;;;;;5006509;28;20019;-67
2022/12/18 08:55:27;;;;;;;;;;;-5.30;99.90;;;;;;4985398;28;19922;-67
2022/12/18 08:57:54;;;;;;;;;;;-5.20;99.90;;;;;;4998747;28;20390;-67
2022/12/18 09:00:19;;;;;;;;;;;-5.20;99.90;;;;;;5023799;28;19923;-67
2022/12/18 09:02:45;;;;;;;;;;;-5.20;99.90;;;;;;5015790;28;19931;-67
2022/12/18 09:05:11;;;;;;;;;;;-5.10;99.90;;;;;;5003526;28;19935;-67
2022/12/18 09:07:37;;;;;;;;;;;-5.10;99.90;;;;;;5027822;28;19964;-67
2022/12/18 09:10:03;;;;;;;;;;;-5.00;99.90;;;;;;5066102;28;19930;-68
2022/12/18 09:12:28;;;;;;;;;;;-4.80;99.90;;;;;;4989758;28;19921;-67
2022/12/18 09:14:54;;;;;;;;;;;-4.40;99.90;;;;;;5012197;28;19929;-67
2022/12/18 09:17:19;;;;;;;;;;;-3.80;99.90;;;;;;5030853;28;19940;-67
2022/12/18 09:19:45;;;;;;;;;;;-3.20;99.90;;;;;;4989498;28;20329;-68
2022/12/18 09:22:11;;;;;;;;;;;-2.80;99.90;;;;;;5018987;28;19929;-67
2022/12/18 09:24:36;;;;;;;;;;;-2.70;99.90;;;;;;5018727;28;19984;-67
2022/12/18 09:27:02;;;;;;;;;;;-2.70;99.90;;;;;;4987460;28;19958;-68
2022/12/18 09:29:28;;;;;;;;;;;-2.80;99.90;;;;;;5012131;28;20415;-67
2022/12/18 09:31:54;;;;;;;;;;;-2.80;99.90;;;;;;5068677;28;20005;-67
2022/12/18 09:34:21;;;;;;;;;;;-2.80;99.90;;;;;;5065798;28;20419;-67
2022/12/18 09:36:47;;;;;;;;;;;-2.90;99.90;;;;;;5056837;28;19978;-67
2022/12/18 09:39:13;;;;;;;;;;;-2.80;99.90;;;;;;5048313;28;19920;-67
2022/12/18 09:41:47;;;;;;;;;;;-2.70;99.90;;;;;;5053751;28;20378;-67
2022/12/18 09:44:26;;;;;;;;;;;-2.70;99.90;;;;;;5030576;28;19930;-67
2022/12/18 09:46:54;;;;;;;;;;;-2.50;99.90;;;;;;5016064;28;19968;-67
2022/12/18 09:49:22;;;;;;;;;;;-2.40;99.90;;;;;;5019498;28;20052;-67
2022/12/18 09:52:03;;;;;;;;;;;-1.50;99.90;;;;;;5009837;28;19926;-67
2022/12/18 09:54:35;;;;;;;;;;;-2.50;99.90;;;;;;5009103;28;20647;-67
2022/12/18 09:57:01;;;;;;;;;;;-2.60;99.90;;;;;;5007031;28;19920;-67
2022/12/18 09:59:30;;;;;;;;;;;-2.50;99.90;;;;;;5013880;28;20305;-67
2022/12/18 10:01:56;;;;;;;;;;;-3.00;99.90;;;;;;5025103;27;19926;-67
2022/12/18 10:04:22;;;;;;;;;;;-3.10;99.90;;;;;;5008412;28;20307;-67
2022/12/18 10:06:54;;;;;;;;;;;-3.00;99.90;;;;;;5005021;28;20327;-67
2022/12/18 10:09:32;;;;;;;;;;;-3.10;99.90;;;;;;5023937;28;19940;-68
2022/12/18 10:12:16;;;;;;;;;;;-3.10;99.90;;;;;;4988861;28;19932;-68
2022/12/18 10:14:54;;;;;;;;;;;-3.30;99.90;;;;;;5024376;28;19920;-67
2022/12/18 10:17:19;;;;;;;;;;;-3.20;99.90;;;;;;5020754;28;20576;-67
2022/12/18 10:19:49;;;;;;;;;;;-3.20;99.90;;;;;;5041337;28;19927;-67
2022/12/18 10:22:29;;;;;;;;;;;-3.20;99.90;;;;;;4999252;28;19935;-67
2022/12/18 10:25:14;;;;;;;;;;;-3.20;99.90;;;;;;5034596;28;19924;-67
2022/12/18 10:27:40;;;;;;;;;;;-3.20;99.90;;;;;;5017767;28;19921;-67
2022/12/18 10:30:20;;;;;;;;;;;-3.20;99.90;;;;;;5027207;28;19927;-67
2022/12/18 10:32:46;;;;;;;;;;;-3.10;99.90;;;;;;5014417;28;19929;-67
2022/12/18 10:35:25;;;;;;;;;;;-4.60;99.90;;;;;;5028062;28;20327;-67
2022/12/18 10:38:06;;;;;;;;;;;-3.20;99.90;;;;;;5028165;28;20377;-67
2022/12/18 10:40:32;;;;;;;;;;;-3.20;99.90;;;;;;5031064;28;19976;-67
2022/12/18 10:43:10;;;;;;;;;;;-3.30;99.90;;;;;;5085183;28;19959;-67
2022/12/18 10:45:36;;;;;;;;;;;-3.20;99.90;;;;;;5009941;28;19921;-67
2022/12/18 10:48:03;;;;;;;;;;;-3.20;99.90;;;;;;5036732;28;20411;-67
2022/12/18 10:50:32;;;;;;;;;;;-2.80;99.90;;;;;;5028113;28;20384;-67
2022/12/18 10:53:02;;;;;;;;;;;-3.00;99.90;;;;;;4992987;28;20442;-67
2022/12/18 10:55:33;;;;;;;;;;;-3.00;99.90;;;;;;5001381;28;20378;-67
2022/12/18 10:58:17;;;;;;;;;;;-3.00;99.90;;;;;;5005670;28;20408;-67
2022/12/18 11:00:43;;;;;;;;;;;-3.00;99.90;;;;;;5021460;28;19922;-67
2022/12/18 11:03:27;;;;;;;;;;;-2.50;99.90;;;;;;5018921;28;20024;-67
2022/12/18 11:06:04;;;;;;;;;;;-2.90;99.90;;;;;;5020618;28;19996;-67
2022/12/18 11:08:30;;;;;;;;;;;-2.90;99.90;;;;;;5011103;28;19990;-67
2022/12/18 11:10:55;;;;;;;;;;;-2.90;99.90;;;;;;5016467;28;19925;-67
2022/12/18 11:13:25;;;;;;;;;;;-2.90;99.90;;;;;;5032666;28;19924;-67
2022/12/18 11:15:51;;;;;;;;;;;-2.90;99.90;;;;;;5014254;28;20335;-67
2022/12/18 11:18:27;;;;;;;;;;;-2.90;99.90;;;;;;5030338;28;19982;-67
2022/12/18 11:20:57;;;;;;;;;;;-3.00;99.90;;;;;;5012627;28;19920;-67
2022/12/18 11:23:23;;;;;;;;;;;-3.00;99.90;;;;;;5048249;28;20394;-67
2022/12/18 11:26:00;;;;;;;;;;;-2.80;99.90;;;;;;5043199;28;19927;-67
2022/12/18 11:28:25;;;;;;;;;;;-2.90;99.90;;;;;;4999311;28;19921;-67
2022/12/18 11:31:09;;;;;;;;;;;-2.80;99.90;;;;;;5057901;28;19920;-67
2022/12/18 11:33:35;;;;;;;;;;;-2.90;99.90;;;;;;5022899;28;19929;-67
2022/12/18 11:36:03;;;;;;;;;;;-2.50;99.90;;;;;;4981619;28;19937;-67
2022/12/18 11:38:29;;;;;;;;;;;-2.70;99.90;;;;;;4979370;28;19980;-67
2022/12/18 11:41:00;;;;;;;;;;;-2.70;99.90;;;;;;4983217;28;20434;-67
2022/12/18 11:43:31;;;;;;;;;;;-2.70;99.90;;;;;;4984003;28;20013;-67
2022/12/18 11:46:16;;;;;;;;;;;-2.60;99.90;;;;;;5060596;28;19929;-67
2022/12/18 11:48:44;;;;;;;;;;;-2.60;99.90;;;;;;5003775;28;20604;-67
2022/12/18 11:51:14;;;;;;;;;;;-2.50;99.90;;;;;;5014052;28;19971;-67
2022/12/18 11:53:39;;;;;;;;;;;-2.50;99.90;;;;;;5011976;28;19976;-67
2022/12/18 11:56:23;;;;;;;;;;;-2.50;99.90;;;;;;5009366;28;19987;-67
2022/12/18 11:59:05;;;;;;;;;;;-2.50;99.90;;;;;;5020825;28;19949;-67
2022/12/18 12:01:31;;;;;;;;;;;-2.40;99.90;;;;;;4998867;28;20391;-67
2022/12/18 12:04:03;;;;;;;;;;;-2.40;99.90;;;;;;5017687;28;20000;-67
2022/12/18 12:06:34;;;;;;;;;;;-2.40;99.90;;;;;;4991647;28;19922;-67
2022/12/18 12:09:05;;;;;;;;;;;-2.40;99.90;;;;;;5012182;28;19929;-67
2022/12/18 12:11:31;;;;;;;;;;;-2.30;99.90;;;;;;5010899;28;19928;-67
2022/12/18 12:13:59;;;;;;;;;;;-2.30;99.90;;;;;;5018041;28;19929;-67
2022/12/18 12:16:29;;;;;;;;;;;-2.20;99.90;;;;;;4998629;28;20164;-66
2022/12/18 12:18:55;;;;;;;;;;;-2.20;99.90;;;;;;5016930;28;19927;-67
2022/12/18 12:21:40;;;;;;;;;;;-2.20;99.90;;;;;;4986731;28;19934;-68
2022/12/18 12:24:35;;;;;;;;;;;-2.20;99.90;;;;;;4989235;28;19930;-67
2022/12/18 12:27:00;;;;;;;;;;;-2.10;99.90;;;;;;4937769;28;19946;-67
2022/12/18 12:29:31;;;;;;;;;;;-2.20;99.90;;;;;;5030389;28;19920;-67
2022/12/18 12:32:03;;;;;;;;;;;-2.10;99.90;;;;;;5016801;28;19922;-67
2022/12/18 12:34:48;;;;;;;;;;;-2.10;99.90;;;;;;5003868;28;19931;-68
2022/12/18 12:37:16;;;;;;;;;;;-2.10;99.90;;;;;;5002878;28;20380;-67
2022/12/18 12:39:44;;;;;;;;;;;-2.00;99.90;;;;;;5014913;28;20429;-67
2022/12/18 12:45:06;;;;;;;;;;;-1.50;99.90;;;;;;5019116;28;20279;-68
2022/12/18 12:47:36;;;;;;;;;;;-2.00;99.90;;;;;;5007293;28;19946;-67
2022/12/18 12:50:03;;;;;;;;;;;-2.00;99.90;;;;;;4985595;28;19922;-67
2022/12/18 12:52:49;;;;;;;;;;;-1.90;99.90;;;;;;4981132;28;19933;-67
2022/12/18 12:55:23;;;;;;;;;;;-2.00;99.90;;;;;;4987423;28;19929;-67
2022/12/18 12:58:07;;;;;;;;;;;-1.90;99.90;;;;;;4994693;28;19957;-67
2022/12/18 13:00:41;;;;;;;;;;;-1.90;99.90;;;;;;5028229;28;20188;-67
2022/12/18 13:03:06;;;;;;;;;;;-1.90;99.90;;;;;;5005155;28;19921;-68
2022/12/18 13:05:41;;;;;;;;;;;-1.90;99.90;;;;;;5018885;28;19921;-68
2022/12/18 13:08:11;;;;;;;;;;;-1.80;99.90;;;;;;5017826;28;20174;-68
2022/12/18 13:10:40;;;;;;;;;;;-1.80;99.90;;;;;;5021281;28;19967;-68
2022/12/18 13:13:07;;;;;;;;;;;-1.80;99.90;;;;;;5013988;28;19926;-68
2022/12/18 13:15:36;;;;;;;;;;;-1.70;99.90;;;;;;5008917;28;19922;-68
2022/12/18 13:18:10;;;;;;;;;;;-1.70;99.90;;;;;;5022212;28;19927;-68
2022/12/18 13:20:37;;;;;;;;;;;-1.70;99.90;;;;;;5024647;28;19977;-68
2022/12/18 13:23:23;;;;;;;;;;;-1.70;99.90;;;;;;4990075;28;19929;-68
2022/12/18 13:25:52;;;;;;;;;;;-1.80;99.90;;;;;;5013757;28;19920;-68
2022/12/18 13:28:24;;;;;;;;;;;-1.70;99.90;;;;;;5024582;28;19933;-67
2022/12/18 13:30:50;;;;;;;;;;;-1.80;99.90;;;;;;5010291;28;20358;-68
2022/12/18 13:33:16;;;;;;;;;;;-1.80;99.90;;;;;;5013960;28;19930;-68
2022/12/18 13:35:45;;;;;;;;;;;-1.80;99.90;;;;;;5024412;28;19926;-68
2022/12/18 13:38:31;;;;;;;;;;;-1.80;99.90;;;;;;5018304;28;20349;-68
2022/12/18 13:41:00;;;;;;;;;;;-1.80;99.90;;;;;;5012748;28;20300;-68
2022/12/18 13:43:34;;;;;;;;;;;-1.80;99.90;;;;;;5002758;28;19997;-67
2022/12/18 13:46:18;;;;;;;;;;;-1.80;99.90;;;;;;5042504;28;20276;-68
2022/12/18 13:49:01;;;;;;;;;;;-1.90;99.90;;;;;;4981956;28;20448;-68
2022/12/18 13:51:28;;;;;;;;;;;-1.90;99.90;;;;;;5017089;28;19935;-68
2022/12/18 13:53:55;;;;;;;;;;;-1.90;99.90;;;;;;4992304;28;19948;-68
2022/12/18 13:56:26;;;;;;;;;;;-1.90;99.90;;;;;;5013002;28;19935;-67
2022/12/18 13:59:05;;;;;;;;;;;-2.00;99.90;;;;;;5002249;28;19920;-67
2022/12/18 14:01:31;;;;;;;;;;;-2.00;99.90;;;;;;5015936;28;20014;-68
2022/12/18 14:04:10;;;;;;;;;;;-1.90;99.90;;;;;;5019855;28;20015;-68
2022/12/18 14:06:35;;;;;;;;;;;-2.00;99.90;;;;;;5004618;28;20462;-67
2022/12/18 14:09:02;;;;;;;;;;;-2.00;99.90;;;;;;5016946;28;19925;-68
2022/12/18 14:11:27;;;;;;;;;;;-2.00;99.90;;;;;;5015834;28;19936;-67
2022/12/18 14:13:53;;;;;;;;;;;-2.10;99.90;;;;;;4986629;28;19922;-67
2022/12/18 14:16:19;;;;;;;;;;;-2.10;99.90;;;;;;5027420;28;20188;-68
2022/12/18 14:18:51;;;;;;;;;;;-2.10;99.90;;;;;;5017158;28;19925;-68
2022/12/18 14:21:24;;;;;;;;;;;-2.10;99.90;;;;;;5022952;28;19929;-67
2022/12/18 14:24:03;;;;;;;;;;;-2.20;99.90;;;;;;5029215;28;19930;-68
2022/12/18 14:26:30;;;;;;;;;;;-2.20;99.90;;;;;;5014614;28;19928;-67
2022/12/18 14:28:56;;;;;;;;;;;-2.20;99.90;;;;;;5003088;28;20014;-68
2022/12/18 14:31:23;;;;;;;;;;;-2.30;99.90;;;;;;5018544;28;19991;-67